Time;durP1;ratioP1;P1;durP2;ratioP2;P2;SDS_P1;SDS_P2;PMS_P1;PMS_P2;Temp;Humidity;BMP_temperature;BMP_pressure;BME280_temperature;BME280_humidity;BME280_pressure;Samples;Min_cycle;Max_cycle;Signal;HPM_P1;HPM_P2
2022/03/13 00:02:09;;;;;;;11.77;8.63;;;;;;;11.02;56.65;101307.50;5009212;28;20050;-67
2022/03/13 00:04:36;;;;;;;10.88;8.20;;;;;;;11.03;56.34;101309.97;5033066;28;20160;-68
2022/03/13 00:07:04;;;;;;;10.95;7.60;;;;;;;11.04;56.19;101316.25;5026769;28;20026;-67
2022/03/13 00:09:30;;;;;;;14.88;8.50;;;;;;;11.03;56.23;101307.28;5013314;28;20208;-66
2022/03/13 00:11:55;;;;;;;11.38;7.70;;;;;;;11.04;56.83;101308.13;5013327;28;20026;-67
2022/03/13 00:14:25;;;;;;;10.98;7.53;;;;;;;10.99;57.05;101308.75;5012591;28;20058;-66
2022/03/13 00:16:52;;;;;;;11.73;7.82;;;;;;;11.03;57.02;101309.16;5013221;28;20034;-67
2022/03/13 00:19:19;;;;;;;10.07;7.47;;;;;;;11.01;56.42;101306.66;5012781;28;20040;-67
2022/03/13 00:21:51;;;;;;;10.15;7.75;;;;;;;10.97;57.12;101306.25;5012810;28;20033;-67
2022/03/13 00:24:20;;;;;;;12.90;7.88;;;;;;;10.96;56.94;101303.75;5012833;28;20028;-67
2022/03/13 00:26:47;;;;;;;11.60;7.97;;;;;;;10.92;56.58;101297.13;5028261;28;20054;-67
2022/03/13 00:29:12;;;;;;;10.88;7.78;;;;;;;10.96;57.36;101303.75;5012668;28;20103;-68
2022/03/13 00:31:37;;;;;;;10.15;7.82;;;;;;;10.93;57.20;101293.38;5013427;28;20128;-67
2022/03/13 00:34:02;;;;;;;10.50;8.20;;;;;;;10.92;56.90;101291.72;5012847;28;20030;-68
2022/03/13 00:36:28;;;;;;;11.15;8.55;;;;;;;10.94;56.93;101284.22;5027854;28;20041;-67
2022/03/13 00:38:53;;;;;;;10.32;8.05;;;;;;;10.94;56.98;101276.09;5012641;28;20370;-66
2022/03/13 00:41:18;;;;;;;13.60;8.48;;;;;;;10.96;57.31;101282.09;5012615;28;20036;-68
2022/03/13 00:43:44;;;;;;;11.18;7.90;;;;;;;10.96;56.38;101282.09;5012762;28;20362;-66
2022/03/13 00:46:09;;;;;;;11.10;8.05;;;;;;;10.96;56.57;101280.25;5012641;28;20137;-67
2022/03/13 00:48:34;;;;;;;11.45;7.93;;;;;;;10.97;56.77;101284.59;5027378;28;20037;-67
2022/03/13 00:51:00;;;;;;;10.57;7.40;;;;;;;10.98;56.94;101277.31;5012476;28;20034;-66
2022/03/13 00:53:25;;;;;;;10.30;7.05;;;;;;;10.95;57.11;101275.88;5012367;28;20041;-67
2022/03/13 00:55:51;;;;;;;10.65;7.97;;;;;;;10.93;57.56;101277.13;5012355;28;20457;-67
2022/03/13 00:58:16;;;;;;;11.35;7.95;;;;;;;10.93;56.93;101271.72;5012407;28;20030;-67
2022/03/13 01:00:41;;;;;;;9.90;7.60;;;;;;;10.93;57.23;101264.44;5009350;28;20033;-68
2022/03/13 01:03:16;;;;;;;12.45;8.00;;;;;;;10.92;57.13;101261.94;5012080;28;20025;-68
2022/03/13 01:05:42;;;;;;;11.05;7.82;;;;;;;10.88;57.52;101266.13;5012942;28;20122;-67
2022/03/13 01:08:07;;;;;;;11.25;8.23;;;;;;;10.90;57.29;101259.44;5012453;28;20113;-66
2022/03/13 01:10:32;;;;;;;11.98;7.95;;;;;;;10.88;57.35;101258.00;5010880;28;20479;-65
2022/03/13 01:12:58;;;;;;;12.90;8.07;;;;;;;10.87;57.08;101257.19;5012199;28;20048;-66
2022/03/13 01:15:26;;;;;;;10.35;7.57;;;;;;;10.88;57.98;101250.69;5015908;28;20434;-66
2022/03/13 01:17:52;;;;;;;10.77;7.90;;;;;;;10.85;58.54;101247.59;5016315;28;20232;-68
2022/03/13 01:20:21;;;;;;;10.85;8.00;;;;;;;10.80;57.06;101243.66;5016362;28;20536;-67
2022/03/13 01:22:47;;;;;;;11.98;8.50;;;;;;;10.77;57.84;101240.56;5016153;28;20026;-67
2022/03/13 01:25:13;;;;;;;10.40;8.20;;;;;;;10.73;58.02;101237.44;5016613;28;20129;-67
2022/03/13 01:27:39;;;;;;;10.93;8.13;;;;;;;10.68;58.06;101237.28;5016053;28;20038;-67
2022/03/13 01:30:06;;;;;;;12.77;8.00;;;;;;;10.66;58.02;101225.84;5016480;28;20029;-67
2022/03/13 01:32:32;;;;;;;10.93;7.57;;;;;;;10.57;58.87;101229.84;5016291;28;20117;-68
2022/03/13 01:34:58;;;;;;;9.40;7.10;;;;;;;10.61;58.65;101236.47;5016206;28;20173;-68
2022/03/13 01:37:30;;;;;;;11.93;7.32;;;;;;;10.55;58.87;101227.38;5016142;28;20030;-67
2022/03/13 01:39:57;;;;;;;10.35;7.53;;;;;;;10.50;58.60;101215.53;5015800;28;20065;-68
2022/03/13 01:42:23;;;;;;;13.00;7.45;;;;;;;10.55;58.70;101218.41;5016005;28;20041;-67
2022/03/13 01:44:49;;;;;;;11.73;8.07;;;;;;;10.55;58.69;101219.25;5014549;28;20038;-67
2022/03/13 01:47:14;;;;;;;11.57;7.43;;;;;;;10.51;58.78;101214.44;5015706;28;20070;-67
2022/03/13 01:49:40;;;;;;;11.73;7.57;;;;;;;10.49;59.50;101211.16;5015719;28;20029;-67
2022/03/13 01:52:05;;;;;;;11.55;7.25;;;;;;;10.48;58.74;101204.06;5016178;28;20088;-68
2022/03/13 01:54:31;;;;;;;9.40;6.90;;;;;;;10.44;58.92;101199.09;5015512;28;20091;-67
2022/03/13 01:56:57;;;;;;;9.82;7.22;;;;;;;10.43;58.98;101202.00;5015311;28;20038;-68
2022/03/13 01:59:22;;;;;;;8.90;6.55;;;;;;;10.42;59.02;101201.19;5015513;28;20034;-67
2022/03/13 02:01:48;;;;;;;10.10;6.88;;;;;;;10.36;58.96;101207.47;5012269;28;20061;-67
2022/03/13 02:04:15;;;;;;;10.85;6.70;;;;;;;10.37;59.36;101206.44;5015277;28;20120;-67
2022/03/13 02:06:40;;;;;;;9.10;6.25;;;;;;;10.31;59.57;101199.13;5015227;28;20492;-67
2022/03/13 02:09:07;;;;;;;9.95;6.72;;;;;;;10.29;59.38;101196.63;5014205;28;20026;-67
2022/03/13 02:11:38;;;;;;;9.35;6.97;;;;;;;10.32;59.69;101194.56;5015252;28;20515;-67
2022/03/13 02:14:05;;;;;;;9.25;6.45;;;;;;;10.26;59.85;101190.81;5015502;28;20076;-67
2022/03/13 02:16:31;;;;;;;9.00;6.63;;;;;;;10.28;60.17;101191.44;5015355;28;20041;-67
2022/03/13 02:18:56;;;;;;;9.52;6.70;;;;;;;10.25;60.25;101189.16;5015369;28;20412;-67
2022/03/13 02:21:27;;;;;;;9.38;6.20;;;;;;;10.24;59.94;101192.91;5015347;28;20088;-67
2022/03/13 02:23:59;;;;;;;8.27;6.60;;;;;;;10.21;60.19;101201.47;5015348;28;20030;-67
2022/03/13 02:26:25;;;;;;;10.70;6.70;;;;;;;10.24;60.89;101198.31;5014215;28;20037;-67
2022/03/13 02:28:53;;;;;;;8.52;6.47;;;;;;;10.24;60.12;101203.75;5015413;28;20041;-66
2022/03/13 02:31:27;;;;;;;8.75;6.97;;;;;;;10.24;60.51;101193.75;5015163;28;20026;-67
2022/03/13 02:33:53;;;;;;;11.30;8.20;;;;;;;10.21;60.22;101206.88;5014968;28;20037;-67
2022/03/13 02:36:23;;;;;;;12.52;8.20;;;;;;;10.22;60.91;101208.50;5015028;28;20080;-67
2022/03/13 02:38:48;;;;;;;12.57;7.93;;;;;;;10.18;60.22;101205.41;5015226;28;20034;-68
2022/03/13 02:41:13;;;;;;;12.43;8.15;;;;;;;10.20;60.62;101197.91;5026162;28;20030;-67
2022/03/13 02:43:39;;;;;;;13.02;7.95;;;;;;;10.21;60.64;101193.34;5014687;28;20083;-68
2022/03/13 02:46:17;;;;;;;11.38;8.27;;;;;;;10.21;60.61;101193.34;5013839;28;20420;-67
2022/03/13 02:48:43;;;;;;;12.13;9.07;;;;;;;10.19;60.49;101187.31;5014030;28;20121;-68
2022/03/13 02:51:08;;;;;;;13.98;9.52;;;;;;;10.21;60.40;101187.94;5014468;28;20735;-67
2022/03/13 02:53:33;;;;;;;12.55;8.93;;;;;;;10.21;61.13;101185.25;5013118;28;20038;-67
2022/03/13 02:55:58;;;;;;;12.10;8.77;;;;;;;10.21;61.57;101180.66;5014864;28;20121;-67
2022/03/13 02:58:24;;;;;;;14.73;9.65;;;;;;;10.18;62.52;101182.97;5013987;28;20029;-68
2022/03/13 03:00:50;;;;;;;15.82;10.52;;;;;;;10.17;62.30;101179.41;5011902;28;20041;-67
2022/03/13 03:03:18;;;;;;;15.00;10.00;;;;;;;10.19;62.18;101181.91;5013568;28;20404;-67
2022/03/13 03:05:44;;;;;;;15.90;9.43;;;;;;;10.20;62.72;101183.56;5014433;28;20030;-68
2022/03/13 03:08:10;;;;;;;13.23;9.73;;;;;;;10.18;62.95;101172.16;5014004;28;20045;-67
2022/03/13 03:10:36;;;;;;;17.33;10.32;;;;;;;10.17;62.80;101170.47;5014342;28;20022;-68
2022/03/13 03:13:03;;;;;;;16.17;10.52;;;;;;;10.17;63.30;101165.06;5014226;28;20034;-67
2022/03/13 03:15:28;;;;;;;13.38;9.98;;;;;;;10.18;62.73;101166.72;5014274;28;20044;-68
2022/03/13 03:17:53;;;;;;;13.88;10.00;;;;;;;10.13;63.57;101163.81;5014139;28;20029;-68
2022/03/13 03:20:20;;;;;;;14.15;11.00;;;;;;;10.07;64.30;101170.91;5014454;28;20481;-67
2022/03/13 03:22:46;;;;;;;15.20;10.52;;;;;;;10.10;64.82;101160.50;5014001;28;20374;-68
2022/03/13 03:25:11;;;;;;;14.77;11.13;;;;;;;10.10;64.88;101165.94;5014350;28;20526;-68
2022/03/13 03:27:39;;;;;;;15.48;11.38;;;;;;;10.08;64.97;101170.72;5014063;28;20108;-67
2022/03/13 03:30:05;;;;;;;14.98;11.50;;;;;;;10.06;64.72;101164.69;5014233;28;20061;-68
2022/03/13 03:32:31;;;;;;;16.50;11.57;;;;;;;10.08;64.62;101156.34;5012551;28;20532;-68
2022/03/13 03:34:56;;;;;;;19.27;10.75;;;;;;;10.07;64.97;101149.28;5014224;28;20587;-68
2022/03/13 03:37:21;;;;;;;15.25;11.55;;;;;;;10.01;64.33;101153.69;5012897;28;20469;-67
2022/03/13 03:39:46;;;;;;;16.30;11.88;;;;;;;10.01;65.35;101152.84;5013886;28;20113;-68
2022/03/13 03:42:12;;;;;;;16.98;12.65;;;;;;;10.06;64.74;101155.75;5013763;28;20048;-67
2022/03/13 03:44:37;;;;;;;18.02;11.82;;;;;;;10.02;65.41;101157.22;5013834;28;20037;-68
2022/03/13 03:47:02;;;;;;;17.08;11.88;;;;;;;10.00;65.37;101160.13;5013707;28;20045;-67
2022/03/13 03:49:28;;;;;;;15.88;12.07;;;;;;;10.01;64.96;101166.38;5028669;28;20048;-68
2022/03/13 03:51:53;;;;;;;16.80;11.77;;;;;;;9.97;64.96;101165.97;5013816;28;20034;-66
2022/03/13 03:54:19;;;;;;;15.57;11.85;;;;;;;9.94;65.24;101156.41;5013643;28;20026;-66
2022/03/13 03:56:44;;;;;;;18.40;12.00;;;;;;;9.95;65.35;101149.16;5013676;28;20044;-66
2022/03/13 03:59:10;;;;;;;16.52;11.38;;;;;;;9.99;65.93;101157.66;5013397;28;20083;-66
2022/03/13 04:01:41;;;;;;;15.07;11.93;;;;;;;9.96;66.93;101153.47;5009763;28;20540;-66
2022/03/13 04:04:08;;;;;;;20.98;13.25;;;;;;;9.99;65.78;101149.53;5013498;28;20044;-66
2022/03/13 04:06:38;;;;;;;18.95;12.95;;;;;;;9.94;66.09;101148.28;5013266;28;20026;-66
2022/03/13 04:09:04;;;;;;;18.45;12.10;;;;;;;9.91;65.88;101148.72;5013290;28;20064;-66
2022/03/13 04:11:30;;;;;;;20.88;14.23;;;;;;;9.88;66.20;101151.03;5013166;28;20030;-66
2022/03/13 04:13:55;;;;;;;18.60;13.95;;;;;;;9.89;65.60;101142.72;5013267;28;20030;-66
2022/03/13 04:16:20;;;;;;;20.17;13.63;;;;;;;9.88;66.11;101145.63;5013451;28;20030;-66
2022/03/13 04:18:47;;;;;;;20.60;13.48;;;;;;;9.82;65.34;101146.47;5012760;28;20448;-67
2022/03/13 04:21:12;;;;;;;19.77;14.00;;;;;;;9.80;64.83;101153.94;5013351;28;20084;-66
2022/03/13 04:23:38;;;;;;;20.70;14.45;;;;;;;9.76;66.04;101148.16;5012873;28;20037;-66
2022/03/13 04:26:04;;;;;;;19.40;14.05;;;;;;;9.73;65.33;101146.69;5028164;28;20030;-66
2022/03/13 04:28:30;;;;;;;19.83;14.38;;;;;;;9.76;66.38;101153.56;5012786;28;20038;-66
2022/03/13 04:30:57;;;;;;;23.63;15.73;;;;;;;9.69;66.32;101159.00;5013207;28;20117;-66
2022/03/13 04:33:23;;;;;;;20.73;15.57;;;;;;;9.71;66.51;101151.50;5012945;28;20500;-66
2022/03/13 04:35:49;;;;;;;21.08;16.40;;;;;;;9.63;67.68;101149.03;5012954;28;20041;-67
2022/03/13 04:38:14;;;;;;;22.60;16.42;;;;;;;9.59;67.98;101150.50;5012848;28;20420;-66
2022/03/13 04:40:39;;;;;;;23.92;16.50;;;;;;;9.55;69.01;101138.44;5012845;28;20030;-66
2022/03/13 04:43:06;;;;;;;22.58;16.60;;;;;;;9.53;68.71;101148.63;5012589;28;20053;-66
2022/03/13 04:45:31;;;;;;;23.67;16.90;;;;;;;9.51;68.76;101142.59;5012469;28;20033;-66
2022/03/13 04:47:56;;;;;;;21.08;16.10;;;;;;;9.43;67.94;101138.25;5012588;28;20026;-67
2022/03/13 04:50:22;;;;;;;22.23;17.27;;;;;;;9.41;69.19;101151.13;5012903;28;20444;-66
2022/03/13 04:52:47;;;;;;;24.38;16.77;;;;;;;9.30;68.51;101144.50;5012534;28;20109;-66
2022/03/13 04:55:13;;;;;;;24.23;17.13;;;;;;;9.36;69.87;101145.50;5012671;28;20030;-66
2022/03/13 04:57:38;;;;;;;23.92;18.10;;;;;;;9.30;70.06;101149.91;5012470;28;20037;-66
2022/03/13 05:00:05;;;;;;;22.45;17.15;;;;;;;9.35;70.25;101152.81;5012841;28;20033;-66
2022/03/13 05:02:30;;;;;;;22.30;17.70;;;;;;;9.27;69.59;101150.31;5008989;28;20046;-66
2022/03/13 05:04:56;;;;;;;23.60;17.23;;;;;;;9.26;68.72;101145.97;5012292;28;20041;-67
2022/03/13 05:07:21;;;;;;;27.10;18.13;;;;;;;9.20;68.81;101149.50;5011425;28;20030;-67
2022/03/13 05:09:47;;;;;;;23.15;17.33;;;;;;;9.20;68.88;101146.78;5012347;28;20120;-68
2022/03/13 05:12:14;;;;;;;22.20;16.67;;;;;;;9.18;68.91;101135.38;5012705;28;20026;-67
2022/03/13 05:14:39;;;;;;;23.60;17.23;;;;;;;9.21;67.93;101132.25;5012207;28;20055;-67
2022/03/13 05:17:05;;;;;;;24.13;17.58;;;;;;;9.16;67.92;101134.75;5012070;28;20363;-67
2022/03/13 05:19:30;;;;;;;24.15;17.63;;;;;;;9.08;68.68;101138.47;5012347;28;20041;-67
2022/03/13 05:21:55;;;;;;;23.17;17.80;;;;;;;9.10;68.72;101135.56;5012616;28;20037;-67
2022/03/13 05:24:21;;;;;;;23.67;16.33;;;;;;;9.08;68.15;101134.97;5012457;28;20085;-67
2022/03/13 05:26:46;;;;;;;23.42;17.00;;;;;;;9.05;68.09;101134.31;5012062;28;20140;-67
2022/03/13 05:29:12;;;;;;;22.67;16.35;;;;;;;9.09;68.04;101139.31;5012160;28;20041;-67
2022/03/13 05:31:38;;;;;;;23.17;16.63;;;;;;;9.04;67.71;101134.53;5012026;28;20541;-67
2022/03/13 05:34:03;;;;;;;23.17;15.95;;;;;;;8.98;67.82;101140.75;5012325;28;20030;-67
2022/03/13 05:36:29;;;;;;;22.85;17.23;;;;;;;9.02;67.09;101142.00;5012518;28;20030;-67
2022/03/13 05:38:54;;;;;;;22.08;16.13;;;;;;;8.99;67.90;101140.56;5011892;28;20097;-68
2022/03/13 05:41:22;;;;;;;21.63;17.15;;;;;;;9.02;66.58;101140.13;5012191;28;20049;-67
2022/03/13 05:43:49;;;;;;;25.00;16.30;;;;;;;9.02;66.31;101132.03;5027019;28;20030;-67
2022/03/13 05:46:14;;;;;;;19.95;15.00;;;;;;;8.95;65.68;101135.78;5011941;28;20049;-67
2022/03/13 05:48:40;;;;;;;22.27;15.38;;;;;;;8.95;65.67;101138.47;5012005;28;20034;-67
2022/03/13 05:51:05;;;;;;;19.27;14.93;;;;;;;8.89;66.37;101147.41;5012027;28;20026;-67
2022/03/13 05:53:30;;;;;;;22.30;15.73;;;;;;;8.85;66.67;101145.13;5011684;28;20037;-67
2022/03/13 05:55:56;;;;;;;24.42;16.05;;;;;;;8.89;66.62;101148.22;5011663;28;20113;-67
2022/03/13 05:58:21;;;;;;;21.80;16.60;;;;;;;8.91;66.44;101146.16;5012293;28;20032;-68
2022/03/13 06:01:03;;;;;;;22.88;16.13;;;;;;;8.88;67.04;101146.59;5010878;28;20054;-67
2022/03/13 06:03:28;;;;;;;;;;;;;;;9.03;65.67;101146.38;5016374;28;20029;-67
2022/03/13 06:05:54;;;;;;;22.50;16.07;;;;;;;8.95;66.14;101141.19;5015279;28;20427;-66
2022/03/13 06:08:19;;;;;;;22.33;16.02;;;;;;;8.94;65.78;101142.25;5015261;28;20328;-67
2022/03/13 06:10:44;;;;;;;21.08;15.95;;;;;;;8.94;65.84;101145.75;5030727;28;20069;-65
2022/03/13 06:13:10;;;;;;;21.20;15.40;;;;;;;8.97;64.77;101145.34;5015787;28;20627;-67
2022/03/13 06:15:37;;;;;;;20.17;14.73;;;;;;;8.94;66.63;101148.44;5015373;28;20032;-67
2022/03/13 06:18:03;;;;;;;20.92;15.20;;;;;;;8.89;64.22;101148.22;5015169;28;20030;-67
2022/03/13 06:20:28;;;;;;;20.88;14.95;;;;;;;8.90;65.12;101160.69;5014165;28;20038;-67
2022/03/13 06:22:54;;;;;;;21.33;15.65;;;;;;;8.90;64.44;101139.09;5015037;28;20036;-67
2022/03/13 06:25:19;;;;;;;20.27;14.38;;;;;;;8.92;64.37;101153.22;5015412;28;20037;-67
2022/03/13 06:27:45;;;;;;;22.55;15.55;;;;;;;8.85;64.44;101147.00;5014661;28;20034;-67
2022/03/13 06:30:13;;;;;;;22.60;15.18;;;;;;;8.86;64.68;101154.03;5015100;28;20045;-67
2022/03/13 06:32:43;;;;;;;19.90;14.52;;;;;;;8.84;64.60;101150.72;5014944;28;20590;-66
2022/03/13 06:35:10;;;;;;;22.85;14.50;;;;;;;8.90;63.96;101151.78;5015265;28;20100;-67
2022/03/13 06:37:37;;;;;;;20.27;14.98;;;;;;;8.86;64.47;101149.50;5014766;28;20030;-66
2022/03/13 06:40:02;;;;;;;18.38;14.57;;;;;;;8.85;64.95;101160.50;5015389;28;20036;-67
2022/03/13 06:42:27;;;;;;;21.60;15.45;;;;;;;8.85;64.34;101158.63;5014910;28;20059;-66
2022/03/13 06:44:53;;;;;;;21.50;15.13;;;;;;;8.92;64.56;101155.91;5014922;28;20073;-67
2022/03/13 06:47:18;;;;;;;18.83;14.65;;;;;;;8.90;64.22;101152.59;5014887;28;20056;-67
2022/03/13 06:49:43;;;;;;;19.38;14.82;;;;;;;8.92;64.00;101139.72;5014795;28;20025;-66
2022/03/13 06:52:09;;;;;;;20.55;14.98;;;;;;;8.95;64.33;101138.47;5014898;28;20422;-67
2022/03/13 06:54:34;;;;;;;20.75;14.75;;;;;;;8.97;64.47;101144.53;4995390;28;20022;-66
2022/03/13 06:56:59;;;;;;;20.33;14.98;;;;;;;8.97;64.51;101147.22;5010017;28;20049;-67
2022/03/13 06:59:25;;;;;;;20.25;15.02;;;;;;;9.01;63.26;101152.00;5013797;28;20026;-67
2022/03/13 07:01:50;;;;;;;23.30;15.52;;;;;;;8.97;64.12;101148.03;5011112;28;20061;-66
2022/03/13 07:04:15;;;;;;;20.98;15.07;;;;;;;9.01;64.07;101157.41;5014291;28;20469;-67
2022/03/13 07:06:41;;;;;;;21.27;15.10;;;;;;;8.99;64.69;101148.66;5014170;28;20088;-66
2022/03/13 07:09:06;;;;;;;21.63;15.50;;;;;;;9.04;64.32;101140.78;5014122;28;20434;-67
2022/03/13 07:11:34;;;;;;;22.40;14.77;;;;;;;9.03;63.84;101144.50;5014267;28;20038;-67
2022/03/13 07:14:01;;;;;;;22.58;14.80;;;;;;;9.04;63.54;101150.72;5014099;28;20025;-67
2022/03/13 07:16:26;;;;;;;20.42;15.75;;;;;;;9.07;63.00;101154.88;5014536;28;20065;-67
2022/03/13 07:18:51;;;;;;;23.50;14.70;;;;;;;9.04;62.91;101156.13;5014186;28;20428;-67
2022/03/13 07:21:17;;;;;;;19.48;13.98;;;;;;;9.10;64.27;101159.88;5014594;28;20473;-67
2022/03/13 07:23:42;;;;;;;22.65;15.30;;;;;;;9.12;63.98;101152.38;5013981;28;20026;-66
2022/03/13 07:26:07;;;;;;;19.65;14.18;;;;;;;9.14;63.79;101144.94;5014280;28;20022;-67
2022/03/13 07:28:33;;;;;;;20.60;14.93;;;;;;;9.14;63.27;101147.63;5014106;28;20108;-67
2022/03/13 07:30:58;;;;;;;19.20;14.40;;;;;;;9.12;64.16;101145.13;5014037;28;20046;-66
2022/03/13 07:33:24;;;;;;;22.35;15.05;;;;;;;9.12;63.86;101141.59;5014022;28;20087;-67
2022/03/13 07:35:49;;;;;;;20.25;14.75;;;;;;;9.10;63.99;101146.38;5013950;28;20045;-67
2022/03/13 07:38:15;;;;;;;23.27;14.45;;;;;;;9.14;63.88;101150.31;5013878;28;20033;-67
2022/03/13 07:40:41;;;;;;;19.40;14.93;;;;;;;9.18;63.64;101151.59;5013847;28;20125;-67
2022/03/13 07:43:07;;;;;;;19.90;14.52;;;;;;;9.22;63.56;101136.59;5013860;28;20033;-67
2022/03/13 07:45:32;;;;;;;19.42;14.02;;;;;;;9.28;63.68;101145.75;5013422;28;20029;-66
2022/03/13 07:47:59;;;;;;;18.75;14.02;;;;;;;9.27;62.79;101142.22;5013534;28;20484;-67
2022/03/13 07:50:26;;;;;;;19.02;14.55;;;;;;;9.33;63.16;101135.13;5013890;28;20104;-67
2022/03/13 07:52:51;;;;;;;20.88;14.55;;;;;;;9.30;62.98;101139.09;5013717;28;20064;-67
2022/03/13 07:55:17;;;;;;;19.70;14.30;;;;;;;9.31;62.95;101151.53;5013832;28;20069;-67
2022/03/13 07:57:43;;;;;;;19.42;14.20;;;;;;;9.28;62.65;101145.75;5028357;28;20033;-66
2022/03/13 08:00:12;;;;;;;19.23;14.30;;;;;;;9.30;63.52;101143.66;5013750;28;20385;-67
2022/03/13 08:02:37;;;;;;;19.80;14.18;;;;;;;9.33;62.62;101141.38;5010165;28;20053;-67
2022/03/13 08:05:03;;;;;;;20.60;14.55;;;;;;;9.37;62.05;101147.19;5013162;28;20113;-67
2022/03/13 08:07:28;;;;;;;20.05;14.55;;;;;;;9.39;61.74;101143.25;5013028;28;20561;-67
2022/03/13 08:09:54;;;;;;;21.02;14.80;;;;;;;9.43;61.70;101146.34;5013433;28;20472;-66
2022/03/13 08:12:21;;;;;;;20.25;14.32;;;;;;;9.47;62.83;101138.66;5013356;28;20136;-67
2022/03/13 08:14:46;;;;;;;19.70;15.07;;;;;;;9.47;61.93;101146.78;5013287;28;20478;-67
2022/03/13 08:17:12;;;;;;;20.65;15.05;;;;;;;9.54;61.97;101136.75;5013282;28;20038;-67
2022/03/13 08:19:37;;;;;;;22.42;14.82;;;;;;;9.57;62.85;101144.44;5013318;28;20109;-67
2022/03/13 08:22:03;;;;;;;21.67;14.82;;;;;;;9.62;62.05;101141.97;5012695;28;20038;-67
2022/03/13 08:24:28;;;;;;;20.55;15.30;;;;;;;9.65;61.64;101138.84;5013073;28;20030;-67
2022/03/13 08:26:53;;;;;;;19.70;14.63;;;;;;;9.67;62.44;101139.44;5012792;28;20037;-67
2022/03/13 08:29:19;;;;;;;20.00;14.43;;;;;;;9.72;62.73;101134.25;5013358;28;20129;-67
2022/03/13 08:31:44;;;;;;;21.73;15.07;;;;;;;9.82;62.13;101141.06;5012018;28;20528;-69
2022/03/13 08:34:09;;;;;;;21.83;14.85;;;;;;;9.86;62.76;101142.31;5012902;28;20034;-67
2022/03/13 08:36:37;;;;;;;20.42;14.85;;;;;;;9.96;61.62;101137.25;5012870;28;20034;-68
2022/03/13 08:39:03;;;;;;;19.90;14.40;;;;;;;9.99;60.68;101136.00;5012861;28;20030;-74
2022/03/13 08:41:28;;;;;;;23.58;14.25;;;;;;;10.05;61.06;101132.44;5028112;28;20518;-68
2022/03/13 08:43:53;;;;;;;23.27;14.90;;;;;;;10.11;61.26;101135.16;5028056;28;20026;-69
2022/03/13 08:46:18;;;;;;;20.35;14.68;;;;;;;10.16;60.09;101142.63;5028024;28;20049;-74
2022/03/13 08:48:44;;;;;;;21.17;14.35;;;;;;;10.21;60.69;101140.06;5012762;28;20050;-72
2022/03/13 08:51:12;;;;;;;19.95;15.18;;;;;;;10.29;60.84;101134.41;5012576;28;20060;-69
2022/03/13 08:53:37;;;;;;;20.70;14.75;;;;;;;10.34;61.64;101125.69;5012895;28;20041;-72
2022/03/13 08:56:03;;;;;;;21.00;15.57;;;;;;;10.43;60.75;101132.50;5011602;28;20857;-67
2022/03/13 08:58:28;;;;;;;19.60;15.13;;;;;;;10.54;59.82;101132.88;5012730;28;20038;-68
2022/03/13 09:00:54;;;;;;;19.75;14.27;;;;;;;10.59;59.57;101124.91;5019235;28;20465;-67
2022/03/13 09:03:19;;;;;;;21.58;15.23;;;;;;;10.64;58.96;101117.81;5015537;28;20030;-69
2022/03/13 09:05:45;;;;;;;21.40;15.25;;;;;;;10.71;58.78;101123.16;5032292;28;20033;-69
2022/03/13 09:08:11;;;;;;;22.08;15.77;;;;;;;10.78;58.52;101126.66;5013936;28;20037;-66
2022/03/13 09:10:36;;;;;;;22.05;14.82;;;;;;;10.87;57.83;101126.38;5011908;28;20118;-68
2022/03/13 09:13:02;;;;;;;21.25;15.77;;;;;;;10.92;57.65;101119.25;5012301;28;20033;-68
2022/03/13 09:15:27;;;;;;;20.70;16.02;;;;;;;11.02;58.38;101120.63;5012441;28;20030;-71
2022/03/13 09:17:55;;;;;;;19.55;14.60;;;;;;;11.12;58.04;101119.09;5012178;28;20388;-73
2022/03/13 09:20:23;;;;;;;21.55;14.63;;;;;;;11.20;57.15;101120.66;5012653;28;20042;-68
2022/03/13 09:22:49;;;;;;;21.60;15.05;;;;;;;11.27;57.64;101120.63;5011901;28;20045;-67
2022/03/13 09:25:15;;;;;;;21.52;15.35;;;;;;;11.37;57.92;101123.66;5022952;28;20037;-69
2022/03/13 09:27:41;;;;;;;20.23;14.82;;;;;;;11.45;57.69;101103.56;5031008;28;20423;-71
2022/03/13 09:30:08;;;;;;;18.90;14.52;;;;;;;11.51;57.13;101117.03;5014563;28;20034;-66
2022/03/13 09:32:33;;;;;;;20.98;15.43;;;;;;;11.58;56.32;101113.44;5012738;28;20042;-71
2022/03/13 09:34:58;;;;;;;21.88;15.63;;;;;;;11.66;57.63;101110.44;5013097;28;20083;-69
2022/03/13 09:37:23;;;;;;;19.58;14.25;;;;;;;11.73;55.95;101113.91;5012520;28;20034;-69
2022/03/13 09:39:50;;;;;;;22.00;14.80;;;;;;;11.80;56.83;101108.38;5014705;28;20033;-71
2022/03/13 09:42:16;;;;;;;23.42;14.60;;;;;;;11.81;55.40;101110.88;5016247;28;20064;-68
2022/03/13 09:44:41;;;;;;;22.38;14.55;;;;;;;11.89;55.20;101112.44;5015949;28;20058;-69
2022/03/13 09:47:10;;;;;;;17.63;14.07;;;;;;;12.06;56.40;101123.53;5015840;28;20046;-68
2022/03/13 09:49:36;;;;;;;17.02;13.23;;;;;;;12.15;55.34;101118.63;5015906;28;20465;-64
2022/03/13 09:52:01;;;;;;;20.10;12.73;;;;;;;12.25;54.72;101107.25;5015839;28;20084;-71
2022/03/13 09:54:26;;;;;;;17.35;12.88;;;;;;;12.31;54.60;101114.47;5014893;28;20030;-65
2022/03/13 09:56:52;;;;;;;16.70;12.85;;;;;;;12.36;55.49;101107.25;5015713;28;20389;-69
2022/03/13 09:59:18;;;;;;;20.23;12.70;;;;;;;12.37;54.60;101108.91;5015951;28;20164;-69
2022/03/13 10:01:43;;;;;;;19.40;13.15;;;;;;;12.45;55.83;101107.75;5012213;28;20505;-68
2022/03/13 10:04:09;;;;;;;18.15;13.75;;;;;;;12.48;54.73;101106.50;5018401;28;20021;-66
2022/03/13 10:07:04;;;;;;;17.30;12.40;;;;;;;12.56;54.89;101115.13;5035205;28;20041;-69
2022/03/13 10:09:30;;;;;;;16.63;12.50;;;;;;;12.65;54.40;101099.34;5021321;28;20037;-65
2022/03/13 10:12:07;;;;;;;17.10;12.85;;;;;;;12.73;55.42;101106.31;5015425;28;20029;-67
2022/03/13 10:14:34;;;;;;;16.77;12.60;;;;;;;12.82;55.34;101104.06;5015702;28;20026;-67
2022/03/13 10:16:59;;;;;;;16.30;12.20;;;;;;;12.86;54.35;101105.25;5015095;28;20022;-67
2022/03/13 10:19:27;;;;;;;17.13;12.25;;;;;;;12.90;53.69;101101.84;5015548;28;20394;-65
2022/03/13 10:22:07;;;;;;;15.82;11.20;;;;;;;13.01;54.06;101093.94;5015350;28;20029;-70
2022/03/13 10:24:50;;;;;;;16.88;11.52;;;;;;;13.07;53.82;101090.28;5015160;28;20025;-64
2022/03/13 10:27:18;;;;;;;17.05;11.82;;;;;;;13.12;53.05;101082.28;5015207;28;20470;-65
2022/03/13 10:29:45;;;;;;;16.80;12.18;;;;;;;13.16;53.18;101083.44;5014986;28;20164;-69
2022/03/13 10:32:10;;;;;;;16.40;11.95;;;;;;;13.25;53.31;101087.44;5014819;28;20495;-66
2022/03/13 10:34:37;;;;;;;14.95;11.18;;;;;;;13.35;52.83;101091.50;5015285;28;20061;-71
2022/03/13 10:37:03;;;;;;;17.42;10.85;;;;;;;13.42;52.85;101078.59;5015064;28;20377;-66
2022/03/13 10:39:30;;;;;;;14.32;11.45;;;;;;;13.50;52.13;101071.97;5014678;28;20481;-66
2022/03/13 10:42:00;;;;;;;16.42;12.00;;;;;;;13.57;52.05;101078.97;5014750;28;20036;-67
2022/03/13 10:44:27;;;;;;;15.60;10.90;;;;;;;13.62;52.41;101076.34;5011795;28;20033;-68
2022/03/13 10:47:04;;;;;;;12.48;9.90;;;;;;;13.65;52.11;101078.56;5014282;28;20305;-66
2022/03/13 10:49:40;;;;;;;14.70;10.45;;;;;;;13.73;51.54;101069.22;5015023;28;20488;-68
2022/03/13 10:52:22;;;;;;;13.85;10.40;;;;;;;13.80;51.34;101069.91;5014686;28;20084;-66
2022/03/13 10:54:48;;;;;;;14.32;10.50;;;;;;;13.82;50.46;101070.47;5014381;28;20034;-63
2022/03/13 10:57:13;;;;;;;14.60;10.88;;;;;;;13.76;50.84;101071.44;5013491;28;20141;-67
2022/03/13 10:59:41;;;;;;;13.00;9.68;;;;;;;13.75;51.32;101071.69;5014782;28;20038;-70
2022/03/13 11:02:22;;;;;;;13.07;10.15;;;;;;;13.67;51.43;101067.44;5010838;28;20037;-69
2022/03/13 11:04:52;;;;;;;14.13;10.45;;;;;;;13.67;50.76;101059.28;5009853;28;20095;-69
2022/03/13 11:07:20;;;;;;;12.70;9.88;;;;;;;13.73;51.74;101061.03;5010598;28;20460;-65
2022/03/13 11:09:45;;;;;;;15.65;10.90;;;;;;;13.83;50.50;101055.00;5013934;28;20030;-69
2022/03/13 11:12:20;;;;;;;14.30;10.77;;;;;;;13.92;50.41;101053.53;5014085;28;20044;-68
2022/03/13 11:14:48;;;;;;;14.90;10.43;;;;;;;14.10;51.20;101044.38;5014346;28;20026;-67